createdAt,value
2018-12-05T00:01:16.164Z,10.50
2018-12-05T00:03:44.342Z,10.83
2018-12-05T00:06:12.619Z,12.67
2018-12-05T00:08:40.770Z,11.50
2018-12-05T00:11:09.248Z,12.37
2018-12-05T00:13:37.359Z,12.83
2018-12-05T00:16:05.557Z,14.23
2018-12-05T00:18:33.713Z,13.10
2018-12-05T00:21:01.895Z,12.97
2018-12-05T00:23:30.139Z,14.23
2018-12-05T00:25:58.419Z,14.77
2018-12-05T00:28:26.675Z,14.80
2018-12-05T00:30:54.862Z,14.77
2018-12-05T00:33:23.330Z,14.87
2018-12-05T00:35:51.473Z,15.03
2018-12-05T00:38:19.620Z,14.37
2018-12-05T00:40:47.833Z,14.57
2018-12-05T00:43:15.982Z,15.33
2018-12-05T00:45:44.117Z,14.87
2018-12-05T00:48:13.076Z,14.57
2018-12-05T00:50:41.315Z,15.17
2018-12-05T00:53:09.454Z,14.73
2018-12-05T00:55:37.626Z,15.57
2018-12-05T00:58:05.758Z,15.37
2018-12-05T01:00:34.061Z,15.23
2018-12-05T01:03:02.278Z,14.73
2018-12-05T01:05:30.399Z,13.33
2018-12-05T01:07:59.620Z,13.97
2018-12-05T01:10:27.867Z,14.07
2018-12-05T01:12:56.069Z,14.10
2018-12-05T01:15:25.086Z,14.57
2018-12-05T01:17:53.309Z,15.53
2018-12-05T01:20:22.333Z,15.10
2018-12-05T01:22:51.040Z,16.70
2018-12-05T01:25:19.182Z,16.47
2018-12-05T01:27:47.668Z,17.10
2018-12-05T01:30:15.900Z,16.50
2018-12-05T01:32:44.064Z,17.23
2018-12-05T01:35:12.363Z,17.10
2018-12-05T01:37:40.505Z,19.70
2018-12-05T01:40:08.822Z,17.77
2018-12-05T01:42:37.054Z,18.23
2018-12-05T01:45:05.378Z,18.30
2018-12-05T01:47:33.530Z,17.17
2018-12-05T01:50:01.854Z,18.83
2018-12-05T01:52:30.218Z,17.67
2018-12-05T01:54:58.380Z,18.20
2018-12-05T01:57:27.029Z,18.97
2018-12-05T01:59:55.240Z,18.90
2018-12-05T02:02:23.382Z,19.33
2018-12-05T02:04:51.524Z,18.43
2018-12-05T02:07:19.829Z,18.03
2018-12-05T02:09:48.350Z,18.17
2018-12-05T02:12:16.577Z,19.63
2018-12-05T02:14:44.699Z,18.43
2018-12-05T02:17:13.292Z,19.67
2018-12-05T02:19:41.451Z,19.03
2018-12-05T02:22:10.357Z,19.67
2018-12-05T02:24:38.575Z,19.37
2018-12-05T02:27:06.705Z,19.97
2018-12-05T02:29:40.653Z,19.70
2018-12-05T02:32:08.784Z,19.90
2018-12-05T02:34:37.108Z,19.50
2018-12-05T02:37:05.260Z,19.07
2018-12-05T02:39:33.597Z,20.10
2018-12-05T02:42:01.839Z,19.73
2018-12-05T02:44:30.154Z,20.70
2018-12-05T02:46:58.355Z,19.37
2018-12-05T02:49:26.685Z,19.07
2018-12-05T02:51:54.924Z,19.77
2018-12-05T02:54:23.127Z,18.73
2018-12-05T02:56:51.337Z,18.97
2018-12-05T02:59:19.507Z,19.23
2018-12-05T03:01:47.884Z,17.73
2018-12-05T03:04:16.105Z,17.97
2018-12-05T03:06:44.322Z,18.17
2018-12-05T03:09:12.653Z,17.77
2018-12-05T03:11:40.833Z,19.30
2018-12-05T03:14:09.017Z,18.60
2018-12-05T03:16:37.341Z,18.10
2018-12-05T03:19:05.569Z,18.97
2018-12-05T03:21:34.043Z,19.20
2018-12-05T03:24:02.252Z,19.60
2018-12-05T03:26:30.460Z,17.93
2018-12-05T03:28:58.618Z,18.67
2018-12-05T03:31:27.316Z,19.43
2018-12-05T03:33:55.521Z,20.17
2018-12-05T03:36:24.430Z,18.97
2018-12-05T03:38:52.627Z,19.87
2018-12-05T03:41:20.763Z,18.33
2018-12-05T03:43:49.039Z,19.47
2018-12-05T03:46:17.232Z,20.47
2018-12-05T03:48:45.503Z,20.90
2018-12-05T03:51:13.883Z,21.43
2018-12-05T03:53:42.092Z,20.53
2018-12-05T03:56:10.229Z,19.90
2018-12-05T03:58:38.436Z,21.70
2018-12-05T04:01:06.769Z,23.30
2018-12-05T04:03:34.968Z,22.67
2018-12-05T04:06:03.273Z,22.90
2018-12-05T04:08:31.400Z,23.33
2018-12-05T04:11:00.002Z,23.37
2018-12-05T04:13:28.214Z,22.97
2018-12-05T04:15:56.611Z,23.20
2018-12-05T04:18:24.769Z,23.70
2018-12-05T04:20:52.962Z,23.87
2018-12-05T04:23:21.252Z,23.40
2018-12-05T04:25:49.411Z,23.90
2018-12-05T04:28:17.618Z,24.60
2018-12-05T04:30:45.773Z,24.70
2018-12-05T04:33:13.937Z,25.37
2018-12-05T04:35:42.245Z,27.07
2018-12-05T04:38:10.454Z,27.07
2018-12-05T04:40:38.619Z,25.93
2018-12-05T04:43:06.869Z,27.53
2018-12-05T04:45:35.322Z,24.90
2018-12-05T04:48:03.444Z,25.13
2018-12-05T04:50:34.483Z,25.40
2018-12-05T04:53:02.963Z,25.10
2018-12-05T04:55:31.780Z,25.87
2018-12-05T04:57:59.979Z,26.47
2018-12-05T05:00:28.271Z,24.87
2018-12-05T05:02:56.516Z,24.83
2018-12-05T05:05:24.655Z,24.43
2018-12-05T05:07:52.975Z,25.03
2018-12-05T05:10:21.562Z,24.17
2018-12-05T05:12:49.861Z,23.23
2018-12-05T05:15:18.020Z,23.30
2018-12-05T05:17:46.385Z,23.83
2018-12-05T05:20:14.615Z,23.73
2018-12-05T05:22:42.903Z,24.23
2018-12-05T05:25:11.218Z,25.20
2018-12-05T05:27:45.706Z,23.63
2018-12-05T05:30:09.606Z,24.67
2018-12-05T05:32:37.807Z,24.07
2018-12-05T05:35:06.648Z,24.20
2018-12-05T05:37:34.799Z,24.10
2018-12-05T05:40:03.838Z,23.67
2018-12-05T05:42:32.119Z,23.63
2018-12-05T05:45:00.574Z,24.30
2018-12-05T05:47:28.777Z,24.97
2018-12-05T05:49:57.061Z,24.73
2018-12-05T05:52:25.511Z,25.87
2018-12-05T05:54:54.044Z,24.67
2018-12-05T05:57:22.170Z,23.47
2018-12-05T05:59:50.406Z,25.40
2018-12-05T06:02:20.291Z,24.43
2018-12-05T06:04:49.135Z,24.10
2018-12-05T06:07:17.653Z,24.57
2018-12-05T06:09:46.561Z,23.50
2018-12-05T06:12:14.746Z,23.97
2018-12-05T06:14:42.903Z,24.13
2018-12-05T06:17:11.025Z,24.50
2018-12-05T06:19:39.243Z,24.60
2018-12-05T06:22:07.549Z,24.07
2018-12-05T06:24:35.690Z,27.13
2018-12-05T06:27:03.973Z,25.03
2018-12-05T06:29:32.374Z,28.60
2018-12-05T06:32:00.657Z,30.27
2018-12-05T06:34:28.799Z,28.40
2018-12-05T06:36:57.023Z,29.73
2018-12-05T06:39:25.946Z,30.40
2018-12-05T06:41:54.099Z,31.03
2018-12-05T06:44:22.937Z,30.87
2018-12-05T06:46:51.124Z,32.23
2018-12-05T06:49:19.261Z,30.60
2018-12-05T06:51:47.467Z,31.67
2018-12-05T06:54:15.607Z,30.67
2018-12-05T06:56:43.958Z,31.07
2018-12-05T06:59:12.157Z,29.70
2018-12-05T07:01:40.583Z,30.67
2018-12-05T07:04:08.875Z,31.50
2018-12-05T07:06:37.026Z,32.20
2018-12-05T07:09:07.585Z,31.13
2018-12-05T07:11:35.727Z,31.63
2018-12-05T07:14:03.943Z,34.93
2018-12-05T07:16:32.193Z,34.77
2018-12-05T07:19:00.330Z,33.80
2018-12-05T07:21:28.575Z,35.20
2018-12-05T07:23:56.791Z,36.83
2018-12-05T07:26:24.982Z,38.33
2018-12-05T07:28:53.125Z,35.60
2018-12-05T07:31:21.330Z,37.33
2018-12-05T07:33:49.738Z,38.70
2018-12-05T07:36:18.631Z,38.37
2018-12-05T07:38:46.804Z,39.40
2018-12-05T07:41:14.950Z,40.10
2018-12-05T07:43:43.089Z,37.83
2018-12-05T07:46:11.564Z,37.63
2018-12-05T07:48:39.708Z,39.17
2018-12-05T07:51:07.929Z,37.53
2018-12-05T07:53:36.682Z,35.17
2018-12-05T07:56:04.885Z,36.53
2018-12-05T07:58:33.032Z,36.03
2018-12-05T08:01:01.238Z,34.50
2018-12-05T08:03:29.461Z,34.50
2018-12-05T08:05:57.647Z,32.43
2018-12-05T08:08:25.804Z,36.50
2018-12-05T08:10:54.658Z,35.00
2018-12-05T08:13:22.797Z,34.73
2018-12-05T08:15:50.944Z,35.20
2018-12-05T08:18:19.150Z,33.53
2018-12-05T08:20:47.392Z,32.07
2018-12-05T08:23:15.547Z,33.53
2018-12-05T08:25:43.878Z,31.00
2018-12-05T08:28:12.073Z,28.67
2018-12-05T08:30:40.435Z,27.83
2018-12-05T08:33:08.582Z,29.37
2018-12-05T08:35:36.719Z,27.20
2018-12-05T08:38:05.020Z,26.07
2018-12-05T08:40:33.172Z,25.00
2018-12-05T08:43:01.574Z,26.47
2018-12-05T08:45:29.874Z,25.77
2018-12-05T08:47:58.895Z,26.33
2018-12-05T08:50:27.218Z,27.13
2018-12-05T08:52:55.565Z,27.03
2018-12-05T08:55:23.806Z,28.30
2018-12-05T08:57:52.000Z,28.97
2018-12-05T09:00:20.242Z,28.90
2018-12-05T09:02:49.427Z,28.37
2018-12-05T09:05:17.701Z,28.10
2018-12-05T09:07:46.626Z,28.57
2018-12-05T09:10:14.847Z,28.07
2018-12-05T09:12:42.991Z,28.30
2018-12-05T09:15:11.268Z,28.27
2018-12-05T09:17:39.408Z,27.37
2018-12-05T09:20:07.918Z,24.97
2018-12-05T09:22:41.164Z,21.37
2018-12-05T09:25:07.561Z,18.47
2018-12-05T09:27:35.948Z,18.33
2018-12-05T09:30:05.397Z,16.60
2018-12-05T09:32:33.524Z,15.93
2018-12-05T09:35:01.750Z,16.30
2018-12-05T09:37:29.870Z,14.43
2018-12-05T09:39:58.066Z,13.83
2018-12-05T09:42:26.221Z,13.17
2018-12-05T09:44:54.863Z,12.47
2018-12-05T09:47:22.999Z,11.80
2018-12-05T09:49:51.295Z,12.53
2018-12-05T09:52:19.435Z,10.90
2018-12-05T09:54:47.581Z,11.17
2018-12-05T09:57:15.807Z,10.63
2018-12-05T09:59:43.991Z,11.90
2018-12-05T10:02:12.456Z,12.13
2018-12-05T10:04:40.727Z,11.23
2018-12-05T10:07:09.072Z,11.07
2018-12-05T10:09:40.468Z,11.37
2018-12-05T10:12:08.639Z,11.40
2018-12-05T10:14:36.916Z,11.67
2018-12-05T10:17:05.175Z,11.93
2018-12-05T10:19:33.449Z,12.10
2018-12-05T10:22:02.154Z,12.10
2018-12-05T10:24:30.444Z,12.80
2018-12-05T10:26:58.571Z,11.90
2018-12-05T10:29:26.995Z,12.77
2018-12-05T10:31:55.273Z,12.00
2018-12-05T10:34:23.424Z,11.37
2018-12-05T10:36:51.634Z,13.23
2018-12-05T10:39:19.820Z,11.73
2018-12-05T10:41:48.821Z,13.37
2018-12-05T10:44:17.031Z,13.67
2018-12-05T10:46:45.250Z,13.60
2018-12-05T10:49:13.534Z,13.53
2018-12-05T10:51:41.678Z,12.77
2018-12-05T10:54:09.854Z,12.13
2018-12-05T10:56:37.987Z,11.47
2018-12-05T10:59:06.202Z,11.40
2018-12-05T11:01:39.958Z,11.73
2018-12-05T11:04:13.920Z,11.83
2018-12-05T11:12:52.913Z,9.83
2018-12-05T11:15:26.998Z,10.63
2018-12-05T11:18:01.044Z,10.57
2018-12-05T11:20:34.995Z,10.40
2018-12-05T11:23:08.837Z,10.57
2018-12-05T11:25:37.064Z,11.13
2018-12-05T11:28:05.269Z,11.23
2018-12-05T11:30:33.423Z,12.03
2018-12-05T11:33:01.923Z,12.80
2018-12-05T11:35:30.080Z,11.93
2018-12-05T11:37:58.379Z,12.33
2018-12-05T11:40:26.720Z,12.67
2018-12-05T11:42:54.924Z,13.03
2018-12-05T11:45:23.066Z,12.10
2018-12-05T11:47:52.194Z,12.93
2018-12-05T11:50:20.318Z,12.97
2018-12-05T11:52:48.466Z,11.70
2018-12-05T11:55:16.610Z,12.60
2018-12-05T11:57:44.853Z,12.23
2018-12-05T12:00:13.031Z,12.17
2018-12-05T12:02:41.186Z,12.27
2018-12-05T12:05:09.549Z,14.03
2018-12-05T12:07:38.380Z,14.03
2018-12-05T12:10:06.702Z,11.90
2018-12-05T12:12:40.668Z,12.97
2018-12-05T12:15:10.939Z,13.90
2018-12-05T12:17:39.530Z,14.40
2018-12-05T12:20:07.804Z,14.57
2018-12-05T12:22:35.951Z,14.23
2018-12-05T12:25:04.370Z,13.40
2018-12-05T12:27:32.524Z,14.03
2018-12-05T12:30:00.664Z,14.43
2018-12-05T12:32:28.812Z,14.37
2018-12-05T12:34:57.051Z,13.77
2018-12-05T12:37:25.199Z,13.57
2018-12-05T12:39:53.352Z,14.17
2018-12-05T12:42:21.563Z,14.23
2018-12-05T12:44:49.759Z,13.40
2018-12-05T12:47:17.903Z,12.97
2018-12-05T12:49:46.048Z,12.80
2018-12-05T12:52:14.271Z,13.27
2018-12-05T12:54:42.422Z,13.97
2018-12-05T12:57:10.555Z,12.53
2018-12-05T12:59:38.731Z,14.03
2018-12-05T13:02:06.889Z,12.27
2018-12-05T13:04:35.252Z,12.03
2018-12-05T13:07:03.520Z,13.27
2018-12-05T13:09:31.833Z,13.33
2018-12-05T13:12:00.009Z,13.33
2018-12-05T13:14:28.281Z,12.50
2018-12-05T13:16:56.542Z,13.30
2018-12-05T13:19:24.683Z,12.93
2018-12-05T13:21:53.079Z,12.97
2018-12-05T13:24:21.212Z,12.63
2018-12-05T13:26:49.379Z,13.17
2018-12-05T13:29:17.555Z,12.60
2018-12-05T13:31:45.695Z,12.03
2018-12-05T13:34:13.829Z,12.47
2018-12-05T13:36:42.028Z,13.27
2018-12-05T13:39:10.295Z,12.40
2018-12-05T13:41:38.730Z,12.03
2018-12-05T13:44:07.340Z,11.87
2018-12-05T13:46:36.066Z,13.10
2018-12-05T13:49:04.410Z,12.83
2018-12-05T13:51:32.571Z,12.67
2018-12-05T13:54:00.717Z,11.87
2018-12-05T13:56:28.854Z,12.17
2018-12-05T13:58:57.111Z,11.97
2018-12-05T14:01:25.259Z,11.63
2018-12-05T14:03:53.396Z,12.47
2018-12-05T14:06:21.546Z,13.00
2018-12-05T14:08:49.745Z,11.77
2018-12-05T14:11:17.943Z,12.00
2018-12-05T14:13:46.742Z,11.97
2018-12-05T14:16:14.945Z,11.77
2018-12-05T14:18:43.134Z,12.83
2018-12-05T14:21:11.274Z,11.47
2018-12-05T14:23:39.402Z,12.30
2018-12-05T14:26:07.642Z,11.47
2018-12-05T14:28:36.883Z,11.57
2018-12-05T14:31:05.014Z,11.20
2018-12-05T14:33:34.051Z,11.07
2018-12-05T14:36:02.504Z,11.30
2018-12-05T14:38:30.643Z,11.17
2018-12-05T14:40:58.781Z,11.63
2018-12-05T14:43:27.451Z,11.37
2018-12-05T14:45:55.591Z,10.03
2018-12-05T14:48:23.844Z,10.77
2018-12-05T14:50:52.026Z,10.40
2018-12-05T14:53:20.168Z,11.70
2018-12-05T14:55:48.363Z,11.53
2018-12-05T14:58:16.789Z,10.90
2018-12-05T15:00:45.548Z,10.70
2018-12-05T15:03:13.679Z,10.30
2018-12-05T15:05:41.942Z,10.40
2018-12-05T15:08:10.086Z,10.40
2018-12-05T15:10:38.215Z,9.93
2018-12-05T15:13:06.357Z,10.53
2018-12-05T15:15:34.596Z,10.73
2018-12-05T15:18:02.742Z,10.20
2018-12-05T15:20:31.019Z,10.47
2018-12-05T15:22:59.230Z,9.97
2018-12-05T15:25:27.478Z,9.33
2018-12-05T15:27:55.624Z,9.73
2018-12-05T15:30:23.924Z,9.17
2018-12-05T15:32:52.093Z,11.40
2018-12-05T15:35:20.240Z,9.97
2018-12-05T15:37:48.594Z,9.97
2018-12-05T15:40:16.824Z,10.03
2018-12-05T15:42:45.000Z,10.83
2018-12-05T15:45:21.374Z,9.80
2018-12-05T15:47:44.173Z,10.77
2018-12-05T15:50:12.397Z,10.27
2018-12-05T15:52:40.548Z,10.00
2018-12-05T15:55:08.788Z,10.03
2018-12-05T15:57:36.944Z,9.97
2018-12-05T16:00:07.763Z,10.87
2018-12-05T16:02:36.127Z,10.53
2018-12-05T16:05:05.950Z,9.93
2018-12-05T16:07:34.082Z,10.57
2018-12-05T16:10:02.283Z,10.40
2018-12-05T16:12:30.435Z,11.27
2018-12-05T16:14:58.593Z,10.73
2018-12-05T16:17:26.800Z,10.97
2018-12-05T16:19:54.935Z,10.97
2018-12-05T16:22:23.078Z,11.20
2018-12-05T16:24:51.241Z,11.03
2018-12-05T16:27:19.411Z,11.50
2018-12-05T16:29:47.587Z,11.30
2018-12-05T16:32:15.742Z,12.40
2018-12-05T16:34:44.168Z,13.13
2018-12-05T16:37:13.052Z,12.03
2018-12-05T16:39:41.222Z,11.60
2018-12-05T16:42:09.390Z,11.63
2018-12-05T16:44:37.526Z,11.60
2018-12-05T16:47:05.688Z,11.90
2018-12-05T16:49:33.846Z,12.07
2018-12-05T16:52:02.001Z,11.67
2018-12-05T16:54:30.551Z,12.00
2018-12-05T16:56:58.701Z,11.90
2018-12-05T16:59:26.848Z,11.53
2018-12-05T17:01:55.072Z,11.53
2018-12-05T17:04:23.270Z,11.10
2018-12-05T17:06:51.455Z,11.67
2018-12-05T17:09:25.793Z,11.43
2018-12-05T17:11:49.899Z,11.40
2018-12-05T17:14:18.108Z,11.63
2018-12-05T17:16:46.251Z,12.33
2018-12-05T17:19:14.399Z,12.23
2018-12-05T17:21:42.542Z,12.17
2018-12-05T17:24:11.607Z,12.53
2018-12-05T17:26:39.835Z,13.07
2018-12-05T17:29:08.163Z,11.53
2018-12-05T17:31:37.043Z,12.03
2018-12-05T17:34:05.224Z,11.60
2018-12-05T17:36:33.385Z,12.20
2018-12-05T17:39:01.524Z,12.63
2018-12-05T17:41:29.697Z,12.97
2018-12-05T17:43:57.932Z,11.50
2018-12-05T17:46:26.067Z,12.73
2018-12-05T17:48:54.219Z,12.17
2018-12-05T17:51:22.366Z,13.03
2018-12-05T17:53:50.555Z,12.20
2018-12-05T17:56:19.257Z,11.83
2018-12-05T17:58:47.441Z,12.63
2018-12-05T18:01:15.655Z,12.27
2018-12-05T18:03:43.839Z,12.77
2018-12-05T18:06:12.102Z,12.47
2018-12-05T18:08:40.416Z,12.00
2018-12-05T18:11:08.550Z,11.73
2018-12-05T18:13:36.776Z,13.40
2018-12-05T18:16:04.927Z,12.90
2018-12-05T18:18:33.063Z,12.57
2018-12-05T18:21:01.205Z,12.30
2018-12-05T18:23:29.388Z,13.13
2018-12-05T18:25:57.553Z,12.40
2018-12-05T18:28:25.690Z,13.83
2018-12-05T18:30:54.345Z,13.70
2018-12-05T18:33:22.490Z,12.63
2018-12-05T18:35:50.624Z,13.13
2018-12-05T18:38:18.755Z,13.97
2018-12-05T18:40:46.987Z,13.57
2018-12-05T18:43:15.138Z,13.93
2018-12-05T18:45:43.288Z,14.60
2018-12-05T18:48:11.435Z,14.40
2018-12-05T18:50:39.720Z,13.83
2018-12-05T18:53:07.856Z,13.87
2018-12-05T18:55:36.099Z,14.80
2018-12-05T18:58:04.354Z,14.33
2018-12-05T19:00:32.560Z,14.40
2018-12-05T19:03:00.989Z,15.57
2018-12-05T19:05:30.017Z,15.37
2018-12-05T19:07:58.264Z,15.77
2018-12-05T19:10:26.602Z,15.03
2018-12-05T19:12:54.760Z,15.27
2018-12-05T19:15:22.978Z,15.70
2018-12-05T19:17:51.222Z,15.40
2018-12-05T19:20:19.540Z,14.83
2018-12-05T19:22:47.733Z,16.10
2018-12-05T19:25:16.027Z,16.30
2018-12-05T19:27:44.236Z,16.63
2018-12-05T19:30:12.531Z,15.83
2018-12-05T19:32:41.356Z,15.80
2018-12-05T19:35:09.623Z,16.07
2018-12-05T19:37:38.233Z,16.90
2018-12-05T19:40:06.514Z,15.77
2018-12-05T19:42:34.758Z,16.33
2018-12-05T19:45:03.003Z,16.97
2018-12-05T19:47:31.154Z,16.73
2018-12-05T19:49:59.374Z,16.90
2018-12-05T19:52:27.522Z,18.50
2018-12-05T19:54:56.566Z,17.03
2018-12-05T19:57:24.720Z,17.67
2018-12-05T19:59:52.963Z,18.47
2018-12-05T20:02:21.109Z,18.23
2018-12-05T20:04:49.253Z,18.40
2018-12-05T20:07:17.485Z,19.57
2018-12-05T20:09:45.783Z,18.73
2018-12-05T20:12:13.934Z,18.27
2018-12-05T20:14:42.176Z,19.90
2018-12-05T20:17:10.341Z,19.93
2018-12-05T20:19:38.502Z,18.43
2018-12-05T20:22:06.753Z,19.07
2018-12-05T20:24:35.016Z,18.33
2018-12-05T20:27:03.162Z,19.70
2018-12-05T20:29:31.582Z,19.00
2018-12-05T20:32:00.909Z,20.43
2018-12-05T20:34:29.054Z,19.73
2018-12-05T20:36:57.671Z,20.67
2018-12-05T20:39:26.383Z,21.87
2018-12-05T20:42:00.052Z,21.87
2018-12-05T20:44:28.300Z,22.03
2018-12-05T20:46:56.430Z,21.27
2018-12-05T20:49:24.567Z,21.63
2018-12-05T20:51:52.726Z,22.33
2018-12-05T20:54:20.868Z,21.93
2018-12-05T20:56:49.026Z,22.40
2018-12-05T20:59:18.113Z,22.13
2018-12-05T21:01:46.462Z,22.37
2018-12-05T21:04:14.812Z,22.33
2018-12-05T21:06:42.969Z,22.77
2018-12-05T21:09:11.173Z,24.50
2018-12-05T21:11:39.478Z,23.37
2018-12-05T21:14:08.948Z,24.87
2018-12-05T21:16:37.120Z,25.50
2018-12-05T21:19:05.740Z,26.63
2018-12-05T21:21:33.989Z,27.47
2018-12-05T21:24:02.162Z,25.87
2018-12-05T21:26:30.303Z,24.83
2018-12-05T21:28:58.441Z,27.07
2018-12-05T21:31:26.571Z,26.40
2018-12-05T21:33:54.713Z,26.83
2018-12-05T21:36:22.960Z,25.23
2018-12-05T21:38:51.140Z,25.47
2018-12-05T21:41:19.297Z,26.87
2018-12-05T21:43:47.784Z,25.67
2018-12-05T21:46:16.037Z,26.33
2018-12-05T21:48:50.069Z,28.30
2018-12-05T21:51:19.661Z,27.80
2018-12-05T21:53:47.795Z,26.57
2018-12-05T21:56:15.954Z,27.23
2018-12-05T21:58:44.137Z,27.10
2018-12-05T22:01:12.276Z,25.70
2018-12-05T22:03:40.431Z,26.90
2018-12-05T22:06:08.720Z,26.77
2018-12-05T22:08:36.858Z,28.50
2018-12-05T22:11:05.226Z,29.37
2018-12-05T22:13:33.498Z,28.97
2018-12-05T22:16:01.665Z,29.33
2018-12-05T22:18:29.852Z,29.70
2018-12-05T22:20:58.009Z,30.83
2018-12-05T22:23:26.150Z,31.67
2018-12-05T22:25:55.920Z,31.90
2018-12-05T22:28:24.314Z,30.33
2018-12-05T22:30:52.448Z,31.37
2018-12-05T22:33:20.596Z,30.87
2018-12-05T22:35:48.894Z,30.67
2018-12-05T22:38:17.036Z,30.30
2018-12-05T22:40:45.325Z,30.00
2018-12-05T22:43:13.568Z,30.47
2018-12-05T22:45:41.690Z,30.17
2018-12-05T22:48:09.965Z,30.83
2018-12-05T22:50:38.179Z,29.27
2018-12-05T22:53:06.375Z,28.70
2018-12-05T22:55:34.578Z,29.03
2018-12-05T22:58:02.851Z,28.80
2018-12-05T23:00:31.077Z,28.80
2018-12-05T23:02:59.251Z,28.30
2018-12-05T23:05:27.401Z,27.37
2018-12-05T23:07:55.532Z,28.70
2018-12-05T23:10:23.836Z,26.30
2018-12-05T23:12:52.052Z,27.30
2018-12-05T23:15:20.211Z,26.83
2018-12-05T23:17:48.400Z,26.80
2018-12-05T23:20:16.549Z,28.17
2018-12-05T23:22:44.699Z,27.67
2018-12-05T23:25:13.418Z,26.53
2018-12-05T23:27:41.584Z,27.27
2018-12-05T23:30:10.203Z,27.77
2018-12-05T23:32:38.474Z,26.53
2018-12-05T23:35:06.616Z,27.33
2018-12-05T23:37:34.789Z,28.43
2018-12-05T23:40:03.398Z,29.33
2018-12-05T23:42:32.431Z,27.17
2018-12-05T23:45:00.690Z,28.67
2018-12-05T23:47:29.086Z,28.53
2018-12-05T23:49:57.255Z,28.60
2018-12-05T23:52:25.458Z,29.10
2018-12-05T23:54:53.606Z,29.13
2018-12-05T23:57:24.421Z,30.00
2018-12-05T23:59:52.558Z,29.00
